Terminal Aerodrome Forecast
Issued by NWS

Home | Current Version | Previous Version | Text Only | Print | Product List | Glossary On
Versions: 1 2 3 4 5 6 7 8 9 10 11 12 13 14
000
FTPA31 PHFO 291124
TAFHJR
TAF
PHJR 291124Z 2912/3012 06011KT P6SM FEW040
     FM291900 06011G16KT P6SM FEW025 SCT040
     FM300600 05011KT P6SM SCT025 SCT040=

USA.gov is the U.S. government's official web portal to all federal, state and local government web resources and services.